Time;durP1;ratioP1;P1;durP2;ratioP2;P2;SDS_P1;SDS_P2;PMS_P1;PMS_P2;Temp;Humidity;BMP_temperature;BMP_pressure;BME280_temperature;BME280_humidity;BME280_pressure;Samples;Min_cycle;Max_cycle;Signal;HPM_P1;HPM_P2
2022/04/28 00:02:22;;;;;;;6.82;4.30;;;4.80;99.90;;;;;;5048418;28;20025;-79
2022/04/28 00:08:22;;;;;;;4.03;3.28;;;4.70;99.90;;;;;;5051470;28;20037;-79
2022/04/28 00:10:48;;;;;;;6.22;3.53;;;4.70;99.90;;;;;;5051201;28;20021;-79
2022/04/28 00:13:14;;;;;;;4.63;3.40;;;4.70;99.90;;;;;;5049340;28;20061;-79
2022/04/28 00:15:40;;;;;;;5.57;3.53;;;4.60;99.90;;;;;;5049483;28;20052;-78
2022/04/28 00:18:06;;;;;;;3.80;3.20;;;4.60;99.90;;;;;;5048922;28;20021;-79
2022/04/28 00:20:32;;;;;;;5.50;3.53;;;4.50;99.90;;;;;;5050121;28;20024;-79
2022/04/28 00:22:58;;;;;;;5.30;3.00;;;4.70;99.90;;;;;;5049883;28;20422;-77
2022/04/28 00:25:24;;;;;;;3.45;2.60;;;4.70;99.90;;;;;;5048806;28;20487;-77
2022/04/28 00:27:50;;;;;;;5.05;2.88;;;4.30;99.90;;;;;;5047971;28;20072;-79
2022/04/28 00:30:17;;;;;;;2.95;2.63;;;4.60;99.90;;;;;;5050001;28;20033;-78
2022/04/28 00:32:43;;;;;;;3.55;3.00;;;4.50;99.90;;;;;;5052623;28;20021;-78
2022/04/28 00:35:09;;;;;;;5.72;3.70;;;4.40;99.90;;;;;;5054470;28;20045;-79
2022/04/28 00:37:35;;;;;;;5.07;3.50;;;4.50;99.90;;;;;;5052381;28;20029;-79
2022/04/28 00:40:01;;;;;;;3.65;3.30;;;4.50;99.90;;;;;;5053626;28;20033;-78
2022/04/28 00:42:27;;;;;;;5.05;3.33;;;4.40;99.90;;;;;;5054952;28;20074;-79
2022/04/28 00:44:54;;;;;;;8.30;4.00;;;4.30;99.90;;;;;;5053813;28;20025;-79
2022/04/28 00:47:22;;;;;;;7.60;3.28;;;4.30;99.90;;;;;;5053583;28;20110;-79
2022/04/28 00:52:51;;;;;;;5.63;3.17;;;4.60;99.90;;;;;;5010941;28;20325;-78
2022/04/28 00:55:17;;;;;;;5.32;3.30;;;4.60;99.90;;;;;;5045227;28;20201;-79
2022/04/28 00:57:43;;;;;;;4.20;3.03;;;4.50;99.90;;;;;;5053345;28;20021;-77
2022/04/28 01:00:11;;;;;;;5.22;3.25;;;4.40;99.90;;;;;;5055210;28;20029;-78
2022/04/28 01:02:37;;;;;;;5.68;3.65;;;4.30;99.90;;;;;;5053971;28;20029;-79
2022/04/28 01:05:03;;;;;;;6.22;3.88;;;4.20;99.90;;;;;;5070288;28;20498;-79
2022/04/28 01:07:29;;;;;;;9.45;5.10;;;4.20;99.90;;;;;;5054021;28;20025;-79
2022/04/28 01:09:55;;;;;;;7.38;4.07;;;4.30;99.90;;;;;;5068882;28;20553;-78
2022/04/28 01:12:24;;;;;;;12.52;4.20;;;4.20;99.90;;;;;;5051673;28;20027;-79
2022/04/28 01:14:50;;;;;;;4.85;3.13;;;4.20;99.90;;;;;;5052343;28;20053;-78
2022/04/28 01:17:18;;;;;;;6.13;3.72;;;4.10;99.90;;;;;;5051827;28;20025;-78
2022/04/28 01:19:44;;;;;;;5.68;3.13;;;4.00;99.90;;;;;;5053076;28;20241;-79
2022/04/28 01:22:10;;;;;;;8.25;4.50;;;3.90;99.90;;;;;;5052370;28;20017;-77
2022/04/28 01:24:36;;;;;;;7.30;4.28;;;3.90;99.90;;;;;;5054587;28;20029;-78
2022/04/28 01:27:05;;;;;;;5.82;3.92;;;4.00;99.90;;;;;;5054239;28;20516;-79
2022/04/28 01:29:34;;;;;;;7.28;4.07;;;3.90;99.90;;;;;;5053366;28;20556;-79
2022/04/28 01:32:01;;;;;;;4.78;3.30;;;3.90;99.90;;;;;;5054527;28;20033;-78
2022/04/28 01:34:27;;;;;;;4.80;3.20;;;3.90;99.90;;;;;;5053266;28;20047;-77
2022/04/28 01:36:53;;;;;;;8.43;3.17;;;3.70;99.90;;;;;;5054091;28;20398;-77
2022/04/28 01:39:19;;;;;;;7.75;4.70;;;3.70;99.90;;;;;;5051231;28;20025;-78
2022/04/28 01:41:50;;;;;;;6.68;3.40;;;3.90;99.90;;;;;;5053677;28;20085;-77
2022/04/28 01:44:17;;;;;;;5.55;3.70;;;3.90;99.90;;;;;;5053277;28;20029;-77
2022/04/28 01:46:43;;;;;;;6.30;3.95;;;3.90;99.90;;;;;;5052851;28;20043;-77
2022/04/28 01:49:10;;;;;;;7.18;3.63;;;3.90;99.90;;;;;;5053103;28;20021;-77
2022/04/28 01:57:05;;;;;;;7.63;4.53;;;3.70;99.90;;;;;;5054306;28;20380;-78
2022/04/28 01:59:32;;;;;;;9.93;3.42;;;3.80;99.90;;;;;;5049919;28;20029;-78
2022/04/28 02:01:59;;;;;;;6.05;3.00;;;3.80;99.90;;;;;;5053508;28;20017;-77
2022/04/28 02:04:25;;;;;;;6.45;3.65;;;3.70;99.90;;;;;;5053018;28;20029;-77
2022/04/28 02:06:51;;;;;;;6.18;3.72;;;3.70;99.90;;;;;;5051992;28;20101;-78
2022/04/28 02:09:17;;;;;;;6.05;3.40;;;3.60;99.90;;;;;;5054110;28;20108;-77
2022/04/28 02:11:43;;;;;;;5.28;3.80;;;3.60;99.90;;;;;;5053788;28;20040;-78
2022/04/28 02:14:09;;;;;;;7.00;3.45;;;3.50;99.90;;;;;;5052604;28;20041;-77
2022/04/28 02:16:35;;;;;;;5.63;3.50;;;3.50;99.90;;;;;;5051753;28;20083;-77
2022/04/28 02:19:00;;;;;;;7.30;3.80;;;3.40;99.90;;;;;;5052364;28;20021;-78
2022/04/28 02:21:26;;;;;;;6.30;4.13;;;3.40;99.90;;;;;;5050734;28;20048;-77
2022/04/28 02:23:52;;;;;;;6.97;4.68;;;3.60;99.90;;;;;;5049068;28;20032;-77
2022/04/28 02:26:19;;;;;;;6.53;4.05;;;3.70;99.90;;;;;;5049206;28;20029;-77
2022/04/28 02:28:48;;;;;;;6.22;3.85;;;3.00;99.90;;;;;;5050076;28;20035;-78
2022/04/28 02:31:14;;;;;;;7.40;3.70;;;3.50;99.90;;;;;;5053013;28;20028;-78
2022/04/28 02:33:40;;;;;;;7.18;4.47;;;3.40;99.90;;;;;;5052208;28;20025;-77
2022/04/28 02:36:06;;;;;;;6.40;3.67;;;3.40;99.90;;;;;;5050564;28;20480;-78
2022/04/28 02:38:32;;;;;;;5.90;4.10;;;3.40;99.90;;;;;;5049030;28;20025;-77
2022/04/28 02:40:58;;;;;;;6.38;4.45;;;3.40;99.90;;;;;;5049015;28;20029;-78
2022/04/28 02:43:24;;;;;;;7.35;5.03;;;3.40;99.90;;;;;;5065430;28;20126;-78
2022/04/28 02:45:50;;;;;;;7.18;3.90;;;3.50;99.90;;;;;;5038995;28;20037;-78
2022/04/28 02:48:16;;;;;;;6.40;4.32;;;3.40;99.90;;;;;;5029359;28;20548;-77
2022/04/28 02:50:42;;;;;;;6.25;4.35;;;3.50;99.90;;;;;;5038539;28;20017;-77
2022/04/28 02:53:08;;;;;;;7.80;4.82;;;3.50;99.90;;;;;;5049014;28;20389;-77
2022/04/28 02:55:34;;;;;;;4.80;3.70;;;3.50;99.90;;;;;;5049162;28;20047;-78
2022/04/28 02:58:00;;;;;;;5.75;3.80;;;3.60;99.90;;;;;;5049898;28;20024;-77
2022/04/28 03:00:26;;;;;;;6.90;4.07;;;3.40;99.90;;;;;;5051293;28;20088;-78
2022/04/28 03:02:52;;;;;;;5.28;3.55;;;3.30;99.90;;;;;;5028901;28;20133;-77
2022/04/28 03:05:18;;;;;;;6.85;3.65;;;3.20;99.90;;;;;;5029439;28;20034;-77
2022/04/28 03:10:50;;;;;;;4.18;3.03;;;3.00;99.90;;;;;;5030766;28;20449;-77
2022/04/28 03:13:17;;;;;;;5.03;3.70;;;3.10;99.90;;;;;;5028985;28;20025;-78
2022/04/28 03:15:45;;;;;;;5.90;4.00;;;2.80;99.90;;;;;;5028529;28;20140;-76
2022/04/28 03:18:14;;;;;;;5.45;4.30;;;2.80;99.90;;;;;;5047828;28;20121;-77
2022/04/28 03:20:40;;;;;;;5.40;3.72;;;2.90;99.90;;;;;;5050299;28;20021;-77
2022/04/28 03:23:06;;;;;;;8.10;4.05;;;3.00;99.90;;;;;;5049921;28;20032;-78
2022/04/28 03:25:32;;;;;;;7.55;4.65;;;3.20;99.90;;;;;;5048209;28;20029;-77
2022/04/28 03:27:58;;;;;;;5.60;4.65;;;3.20;99.90;;;;;;5048691;28;20481;-78
2022/04/28 03:30:24;;;;;;;4.68;3.78;;;3.10;99.90;;;;;;5049036;28;20060;-78
2022/04/28 03:32:50;;;;;;;5.35;3.97;;;2.80;99.90;;;;;;5050109;28;20048;-77
2022/04/28 03:35:16;;;;;;;4.90;3.63;;;2.80;99.90;;;;;;5050559;28;20435;-77
2022/04/28 03:37:47;;;;;;;8.05;3.28;;;2.70;99.90;;;;;;5048759;28;20099;-77
2022/04/28 03:40:14;;;;;;;5.43;3.47;;;2.60;99.90;;;;;;5048460;28;20213;-77
2022/04/28 03:42:40;;;;;;;5.82;3.78;;;2.60;99.90;;;;;;5048075;28;20024;-77
2022/04/28 03:45:07;;;;;;;5.57;4.25;;;2.60;99.90;;;;;;5050535;28;20032;-78
2022/04/28 03:47:33;;;;;;;5.55;4.60;;;2.60;99.90;;;;;;5049587;28;20028;-77
2022/04/28 03:49:59;;;;;;;5.82;3.88;;;2.80;99.90;;;;;;5048956;28;20121;-78
2022/04/28 03:52:25;;;;;;;6.43;4.57;;;2.90;99.90;;;;;;5051591;28;20044;-79
2022/04/28 03:54:51;;;;;;;6.57;4.55;;;2.90;99.90;;;;;;5048069;28;20072;-77
2022/04/28 03:57:18;;;;;;;5.95;4.20;;;2.90;99.90;;;;;;5049460;28;20021;-77
2022/04/28 03:59:44;;;;;;;8.35;5.05;;;2.90;99.90;;;;;;5047876;28;20473;-78
2022/04/28 04:02:10;;;;;;;8.30;4.18;;;2.90;99.90;;;;;;5048107;28;20029;-77
2022/04/28 04:04:36;;;;;;;7.53;4.35;;;2.90;99.90;;;;;;5048273;28;20078;-77
2022/04/28 04:07:04;;;;;;;4.32;3.40;;;2.90;99.90;;;;;;5051517;28;20051;-78
2022/04/28 04:09:29;;;;;;;7.75;3.95;;;2.80;99.90;;;;;;5053273;28;20428;-77
2022/04/28 04:11:55;;;;;;;5.32;3.67;;;2.80;99.90;;;;;;5052765;28;20025;-77
2022/04/28 04:14:21;;;;;;;5.60;4.30;;;2.70;99.90;;;;;;5051883;28;20071;-77
2022/04/28 04:16:47;;;;;;;6.32;4.85;;;2.80;99.90;;;;;;5051563;28;20041;-78
2022/04/28 04:19:13;;;;;;;5.13;3.80;;;2.70;99.90;;;;;;5051839;28;20110;-77
2022/04/28 04:21:39;;;;;;;8.18;4.50;;;2.80;99.90;;;;;;5052965;28;20025;-77
2022/04/28 04:24:06;;;;;;;5.30;3.53;;;2.80;99.90;;;;;;5052821;28;20017;-77
2022/04/28 04:26:32;;;;;;;12.30;5.45;;;2.80;99.90;;;;;;5051214;28;20021;-78
2022/04/28 04:28:58;;;;;;;8.43;4.57;;;2.70;99.90;;;;;;5051534;28;20171;-78
2022/04/28 04:34:09;;;;;;;8.18;4.80;;;2.80;99.90;;;;;;5052869;28;20425;-77
2022/04/28 04:36:35;;;;;;;7.93;4.78;;;2.80;99.90;;;;;;5053260;28;20029;-78
2022/04/28 04:39:00;;;;;;;7.75;4.57;;;2.80;99.90;;;;;;5051140;28;20540;-77
2022/04/28 04:41:26;;;;;;;7.70;4.30;;;2.80;99.90;;;;;;5051003;28;20017;-77
2022/04/28 04:43:52;;;;;;;6.35;4.10;;;2.80;99.90;;;;;;5051015;28;20031;-77
2022/04/28 04:46:18;;;;;;;7.10;5.28;;;2.70;99.90;;;;;;5050714;28;20397;-77
2022/04/28 04:48:44;;;;;;;10.05;5.47;;;2.80;99.90;;;;;;5052685;28;20048;-77
2022/04/28 04:51:10;;;;;;;8.60;5.50;;;2.90;99.90;;;;;;5051335;28;20469;-77
2022/04/28 04:53:39;;;;;;;10.20;5.95;;;3.20;99.90;;;;;;5050949;28;20040;-78
2022/04/28 04:56:05;;;;;;;8.15;4.68;;;5.90;99.90;;;;;;5051415;28;20045;-78
2022/04/28 04:58:31;;;;;;;5.88;4.07;;;3.40;99.90;;;;;;5053768;28;20071;-77
2022/04/28 05:00:56;;;;;;;9.48;5.20;;;3.30;99.90;;;;;;5054036;28;20501;-77
2022/04/28 05:03:22;;;;;;;8.70;5.45;;;3.30;99.90;;;;;;5052516;28;20272;-78
2022/04/28 05:05:48;;;;;;;11.27;5.80;;;3.50;99.90;;;;;;5051377;28;20025;-78
2022/04/28 05:08:14;;;;;;;12.98;6.22;;;3.60;99.90;;;;;;5053611;28;20111;-78
2022/04/28 05:10:41;;;;;;;8.70;5.40;;;3.70;99.90;;;;;;5054628;28;20032;-77
2022/04/28 05:13:08;;;;;;;11.13;5.72;;;3.80;99.90;;;;;;5054694;28;20404;-77
2022/04/28 05:15:33;;;;;;;11.02;6.40;;;3.90;99.90;;;;;;5057615;28;20044;-78
2022/04/28 05:17:59;;;;;;;13.55;5.82;;;4.00;99.90;;;;;;5054198;28;20505;-78
2022/04/28 05:20:26;;;;;;;9.93;5.88;;;4.10;99.90;;;;;;5057000;28;20417;-80
2022/04/28 05:22:52;;;;;;;10.20;5.88;;;4.20;99.90;;;;;;5057373;28;20569;-78
2022/04/28 05:25:19;;;;;;;12.25;5.78;;;4.20;99.90;;;;;;5054073;28;20056;-78
2022/04/28 05:27:45;;;;;;;12.52;7.40;;;4.20;99.90;;;;;;5040080;28;20037;-79
2022/04/28 05:30:11;;;;;;;13.02;6.15;;;4.20;99.90;;;;;;5035861;28;20029;-78
2022/04/28 05:32:37;;;;;;;10.93;6.22;;;4.50;99.90;;;;;;5035373;28;20209;-77
2022/04/28 05:35:03;;;;;;;13.27;7.18;;;4.90;99.90;;;;;;5051646;28;20212;-79
2022/04/28 05:37:29;;;;;;;10.63;6.68;;;5.00;99.90;;;;;;5040719;28;20063;-79
2022/04/28 05:39:55;;;;;;;12.55;6.25;;;5.10;99.90;;;;;;5042786;28;20408;-79
2022/04/28 05:42:21;;;;;;;10.40;6.53;;;5.30;99.90;;;;;;5033125;28;20508;-79
2022/04/28 05:47:31;;;;;;;11.90;6.20;;;5.60;99.90;;;;;;5035963;28;20032;-79
2022/04/28 05:49:57;;;;;;;11.27;6.57;;;5.70;99.90;;;;;;5040161;28;20026;-78
2022/04/28 05:52:22;;;;;;;10.82;6.43;;;5.80;99.90;;;;;;5030597;28;20057;-79
2022/04/28 05:54:48;;;;;;;17.90;9.77;;;5.80;99.90;;;;;;5029333;28;20506;-78
2022/04/28 05:57:18;;;;;;;15.77;8.82;;;6.00;99.90;;;;;;5028200;28;20075;-78
2022/04/28 05:59:44;;;;;;;15.85;9.23;;;6.20;99.90;;;;;;5030025;28;20124;-77
2022/04/28 06:02:10;;;;;;;15.82;8.82;;;6.40;99.90;;;;;;5029617;28;20044;-77
2022/04/28 06:04:36;;;;;;;12.85;8.43;;;6.70;99.90;;;;;;5029759;28;20052;-76
2022/04/28 06:07:01;;;;;;;15.90;8.75;;;6.90;99.90;;;;;;5029243;28;20033;-77
2022/04/28 06:09:27;;;;;;;93.97;43.28;;;7.10;99.90;;;;;;5030747;28;20032;-78
2022/04/28 06:11:53;;;;;;;21.38;12.02;;;7.40;99.90;;;;;;5035710;28;20067;-77
2022/04/28 06:14:19;;;;;;;15.70;8.90;;;7.60;99.90;;;;;;5041632;28;20517;-77
2022/04/28 06:16:44;;;;;;;13.70;7.75;;;7.80;99.90;;;;;;5029510;28;20050;-77
2022/04/28 06:19:11;;;;;;;13.60;8.65;;;7.80;99.90;;;;;;5047981;28;20049;-78
2022/04/28 06:21:36;;;;;;;13.85;8.45;;;8.00;99.90;;;;;;5039888;28;20023;-78
2022/04/28 06:24:02;;;;;;;14.95;8.57;;;8.10;99.90;;;;;;5057088;28;20099;-78
2022/04/28 06:26:29;;;;;;;13.68;8.80;;;8.20;99.90;;;;;;5051390;28;20029;-77
2022/04/28 06:28:54;;;;;;;11.98;8.13;;;8.30;99.90;;;;;;5031629;28;20028;-77
2022/04/28 06:31:20;;;;;;;13.75;7.85;;;8.50;99.90;;;;;;5032733;28;20055;-77
2022/04/28 06:33:46;;;;;;;11.15;7.70;;;8.60;99.90;;;;;;5054624;28;20076;-76
2022/04/28 06:36:11;;;;;;;11.73;7.88;;;8.90;99.90;;;;;;5055124;28;20396;-77
2022/04/28 06:38:37;;;;;;;11.18;7.05;;;9.00;99.90;;;;;;5053927;28;20485;-77
2022/04/28 06:41:03;;;;;;;11.27;7.30;;;9.20;99.90;;;;;;5052963;28;20025;-76
2022/04/28 06:43:29;;;;;;;15.23;7.43;;;9.30;99.90;;;;;;5054450;28;20313;-78
2022/04/28 06:46:13;;;;;;;10.40;6.50;;;9.70;99.90;;;;;;5052222;28;20398;-77
2022/04/28 06:48:41;;;;;;;11.57;6.90;;;10.00;99.90;;;;;;5050945;28;20017;-77
2022/04/28 06:51:07;;;;;;;11.30;6.30;;;11.30;99.90;;;;;;5051054;28;20114;-78
2022/04/28 06:53:33;;;;;;;9.20;6.60;;;10.60;99.90;;;;;;5051152;28;20024;-77
2022/04/28 06:55:59;;;;;;;8.30;6.63;;;11.00;99.90;;;;;;5051010;28;20371;-79
2022/04/28 06:58:25;;;;;;;10.77;7.80;;;11.50;99.90;;;;;;5051252;28;20025;-78
2022/04/28 07:00:52;;;;;;;10.73;7.35;;;11.60;99.90;;;;;;5042516;28;20037;-78
2022/04/28 07:03:18;;;;;;;8.65;5.78;;;11.80;99.90;;;;;;5046041;28;20126;-78
2022/04/28 07:05:44;;;;;;;9.40;5.75;;;12.20;99.90;;;;;;5051887;28;20077;-78
2022/04/28 07:08:09;;;;;;;6.65;5.30;;;12.90;99.90;;;;;;5052700;28;20018;-79
2022/04/28 07:10:37;;;;;;;12.45;6.00;;;13.20;99.90;;;;;;5053520;28;20051;-78
2022/04/28 07:13:03;;;;;;;11.60;5.40;;;13.30;99.90;;;;;;5050714;28;20091;-78
2022/04/28 07:15:29;;;;;;;8.00;5.53;;;12.60;99.90;;;;;;5050754;28;20064;-79
2022/04/28 07:17:55;;;;;;;8.43;5.50;;;12.80;99.90;;;;;;5050951;28;20553;-79
2022/04/28 07:20:20;;;;;;;8.63;5.38;;;12.90;99.90;;;;;;5051480;28;20020;-79
2022/04/28 07:22:46;;;;;;;9.98;5.63;;;12.50;99.90;;;;;;5050384;28;20071;-79
2022/04/28 07:25:12;;;;;;;8.45;5.35;;;12.30;99.90;;;;;;5051189;28;20036;-79
2022/04/28 07:27:38;;;;;;;10.40;6.40;;;12.20;99.90;;;;;;5051301;28;20036;-78
2022/04/28 07:30:04;;;;;;;10.60;6.07;;;12.40;99.90;;;;;;5049200;28;20029;-78
2022/04/28 07:32:33;;;;;;;8.70;5.68;;;12.20;99.90;;;;;;5051944;28;20059;-80
2022/04/28 07:34:58;;;;;;;8.97;5.43;;;12.40;99.90;;;;;;5050579;28;20485;-77
2022/04/28 07:37:24;;;;;;;8.40;6.07;;;12.30;99.90;;;;;;5049550;28;20024;-78
2022/04/28 07:39:50;;;;;;;10.20;6.13;;;12.60;99.90;;;;;;5050035;28;20075;-77
2022/04/28 07:42:16;;;;;;;8.48;5.60;;;12.80;99.90;;;;;;5050100;28;20021;-78
2022/04/28 07:44:44;;;;;;;8.77;6.47;;;12.80;99.90;;;;;;5049518;28;20025;-77
2022/04/28 07:47:10;;;;;;;9.27;6.68;;;12.40;99.90;;;;;;5050380;28;20024;-78
2022/04/28 07:49:36;;;;;;;7.82;5.75;;;12.30;99.90;;;;;;5050614;28;20025;-79
2022/04/28 07:52:03;;;;;;;8.43;5.78;;;12.80;99.90;;;;;;5043831;28;20017;-78
2022/04/28 07:54:28;;;;;;;7.53;5.40;;;13.20;99.90;;;;;;5042049;28;20039;-81
2022/04/28 07:56:55;;;;;;;9.10;6.20;;;12.90;99.90;;;;;;5052165;28;20048;-78
2022/04/28 07:59:22;;;;;;;9.13;6.70;;;13.30;99.90;;;;;;5051660;28;20021;-79
2022/04/28 08:01:48;;;;;;;8.90;6.05;;;13.30;99.90;;;;;;5058511;28;20021;-80
2022/04/28 08:04:14;;;;;;;8.70;5.65;;;13.90;99.90;;;;;;5051880;28;20060;-80
2022/04/28 08:06:39;;;;;;;7.10;5.20;;;14.30;99.90;;;;;;5046477;28;20449;-78
2022/04/28 08:09:05;;;;;;;9.65;5.65;;;13.70;99.90;;;;;;5044662;28;20036;-77
2022/04/28 08:11:31;;;;;;;8.82;5.85;;;13.70;99.90;;;;;;5032447;28;20557;-77
2022/04/28 08:13:57;;;;;;;10.48;6.40;;;14.20;99.90;;;;;;5024878;28;20037;-77
2022/04/28 08:16:22;;;;;;;8.07;6.55;;;14.70;99.90;;;;;;5026385;28;20065;-77
2022/04/28 08:18:49;;;;;;;7.78;4.80;;;14.80;99.90;;;;;;5026085;28;20060;-77
2022/04/28 08:21:15;;;;;;;9.20;6.40;;;15.40;99.90;;;;;;5027707;28;20030;-79
2022/04/28 08:23:40;;;;;;;13.63;6.45;;;15.30;98.60;;;;;;5026442;28;20035;-79
2022/04/28 08:26:06;;;;;;;10.80;5.88;;;15.40;99.90;;;;;;5026753;28;20076;-77
2022/04/28 08:28:32;;;;;;;9.65;5.47;;;15.80;97.70;;;;;;5026573;28;20427;-76
2022/04/28 08:30:58;;;;;;;7.50;5.25;;;15.70;94.30;;;;;;5026726;28;20052;-78
2022/04/28 08:33:23;;;;;;;7.18;5.25;;;16.20;94.60;;;;;;5025469;28;20380;-77
2022/04/28 08:35:49;;;;;;;8.35;5.30;;;16.40;91.90;;;;;;5024968;28;20060;-77
2022/04/28 08:38:15;;;;;;;7.28;5.30;;;15.80;99.90;;;;;;5026717;28;20109;-77
2022/04/28 08:40:45;;;;;;;9.77;5.57;;;15.80;96.40;;;;;;5025505;28;20037;-77
2022/04/28 08:43:14;;;;;;;8.70;5.32;;;15.30;98.30;;;;;;5024926;28;20026;-77
2022/04/28 08:48:30;;;;;;;9.60;5.83;;;15.10;99.90;;;;;;5044975;28;20044;-78
2022/04/28 08:50:59;;;;;;;6.40;5.10;;;15.20;99.90;;;;;;5047142;28;20869;-78
2022/04/28 08:53:24;;;;;;;6.50;4.70;;;15.10;99.90;;;;;;5048139;28;20052;-77
2022/04/28 08:55:50;;;;;;;6.50;5.22;;;15.50;99.90;;;;;;5050472;28;20060;-78
2022/04/28 08:58:17;;;;;;;8.95;5.47;;;15.30;98.60;;;;;;5049772;28;20122;-77
2022/04/28 09:00:42;;;;;;;6.95;4.95;;;15.40;99.90;;;;;;5050086;28;20108;-77
2022/04/28 09:03:08;;;;;;;7.80;5.60;;;15.30;98.10;;;;;;5048458;28;20115;-77
2022/04/28 09:05:34;;;;;;;7.35;5.97;;;15.10;99.90;;;;;;5048275;28;20116;-77
2022/04/28 09:08:00;;;;;;;6.32;4.97;;;15.10;99.90;;;;;;5048478;28;20501;-76
2022/04/28 09:10:33;;;;;;;7.78;5.68;;;15.00;99.90;;;;;;5049354;28;20428;-78
2022/04/28 09:15:52;;;;;;;8.35;5.18;;;15.30;99.90;;;;;;5049026;28;20059;-77
2022/04/28 09:18:21;;;;;;;8.73;5.70;;;15.00;99.90;;;;;;5049151;28;20098;-77
2022/04/28 09:20:48;;;;;;;;;;;15.10;99.90;;;;;;5050446;28;20036;-78
2022/04/28 09:23:18;;;;;;;6.95;5.00;;;15.00;99.90;;;;;;5047441;28;20477;-77
2022/04/28 09:25:47;;;;;;;9.45;5.38;;;14.80;99.90;;;;;;5046816;28;20027;-78
2022/04/28 09:28:13;;;;;;;9.23;5.88;;;15.10;99.90;;;;;;5045529;28;20357;-78
2022/04/28 09:30:52;;;;;;;11.05;5.68;;;14.80;99.90;;;;;;5047363;28;20093;-77
2022/04/28 09:33:18;;;;;;;;;;;15.00;99.90;;;;;;5046382;28;20060;-78
2022/04/28 09:35:46;;;;;;;7.10;5.05;;;14.90;99.90;;;;;;5047215;28;20662;-77
2022/04/28 09:38:12;;;;;;;6.57;5.00;;;14.90;99.90;;;;;;5045497;28;20021;-78
2022/04/28 09:43:22;;;;;;;10.00;5.47;;;14.80;99.90;;;;;;5046970;28;20063;-77
2022/04/28 09:45:49;;;;;;;8.38;5.38;;;14.80;99.90;;;;;;5047181;28;20536;-78
2022/04/28 09:48:17;;;;;;;6.70;4.80;;;15.00;99.90;;;;;;5033084;28;20033;-78
2022/04/28 09:50:43;;;;;;;6.35;5.60;;;15.20;99.90;;;;;;5027984;28;20550;-78
2022/04/28 09:53:11;;;;;;;8.50;5.35;;;15.20;99.90;;;;;;5028348;28;20025;-78
2022/04/28 09:55:39;;;;;;;6.15;5.00;;;15.00;99.90;;;;;;5028862;28;20509;-77
2022/04/28 09:58:09;;;;;;;6.47;5.07;;;15.00;99.90;;;;;;5027428;28;20675;-77
2022/04/28 10:00:34;;;;;;;;;;;15.20;99.90;;;;;;5030437;28;20053;-78
2022/04/28 10:03:04;;;;;;;5.78;4.15;;;15.60;94.10;;;;;;5029969;28;19905;-78
2022/04/28 10:05:31;;;;;;;7.72;5.22;;;15.60;94.40;;;;;;5028418;28;20025;-77
2022/04/28 10:07:58;;;;;;;8.50;5.10;;;15.90;93.50;;;;;;5028190;28;20030;-77
2022/04/28 10:10:26;;;;;;;7.05;4.70;;;15.80;93.50;;;;;;5028429;28;20512;-78
2022/04/28 10:12:54;;;;;;;6.07;4.65;;;17.80;96.10;;;;;;5026798;28;20483;-77
2022/04/28 10:15:21;;;;;;;5.93;4.90;;;15.50;96.50;;;;;;5026644;28;20417;-77
2022/04/28 10:17:57;;;;;;;5.60;4.63;;;15.60;96.40;;;;;;5026949;28;20033;-78
2022/04/28 10:20:33;;;;;;;6.53;4.55;;;15.60;95.70;;;;;;5028492;28;20505;-78
2022/04/28 10:23:01;;;;;;;5.93;4.63;;;16.10;92.50;;;;;;5026653;28;20749;-77
2022/04/28 10:34:18;;;;;;;6.03;4.50;;;16.50;93.60;;;;;;5028109;28;20091;-77
2022/04/28 10:37:04;;;;;;;6.70;5.50;;;16.50;89.40;;;;;;5035464;28;20469;-77
2022/04/28 10:39:39;;;;;;;5.10;4.43;;;16.60;85.30;;;;;;5038645;28;20726;-77
2022/04/28 10:42:20;;;;;;;5.18;4.32;;;17.10;79.70;;;;;;5037514;28;20125;-77
2022/04/28 10:44:57;;;;;;;7.43;4.32;;;17.50;74.20;;;;;;5046843;28;20021;-77
2022/04/28 10:47:35;;;;;;;5.65;4.30;;;17.40;81.60;;;;;;5045967;28;20041;-77
2022/04/28 10:50:02;;;;;;;4.53;4.03;;;17.30;75.70;;;;;;5047608;28;20033;-78
2022/04/28 10:52:28;;;;;;;6.10;4.47;;;17.40;79.10;;;;;;5046265;28;20149;-77
2022/04/28 10:54:58;;;;;;;4.80;4.32;;;17.20;83.60;;;;;;5047542;28;20230;-77
2022/04/28 10:57:32;;;;;;;5.30;4.80;;;17.50;79.10;;;;;;5047559;28;20103;-77
2022/04/28 11:00:00;;;;;;;4.63;4.22;;;17.70;79.20;;;;;;5046880;28;20393;-77
2022/04/28 11:02:26;;;;;;;4.95;4.00;;;17.70;77.10;;;;;;5046753;28;20496;-76
2022/04/28 11:05:13;;;;;;;5.22;4.18;;;17.80;75.70;;;;;;5047561;28;20104;-77
2022/04/28 11:07:46;;;;;;;5.88;3.90;;;18.30;74.90;;;;;;5047433;28;20055;-77
2022/04/28 11:10:13;;;;;;;5.55;4.35;;;18.10;72.00;;;;;;5048402;28;20071;-77
2022/04/28 11:12:41;;;;;;;4.85;4.15;;;18.30;72.70;;;;;;5045179;28;20052;-78
2022/04/28 11:15:10;;;;;;;7.53;4.32;;;18.00;74.20;;;;;;5045608;28;20211;-77
2022/04/28 11:17:43;;;;;;;4.28;3.53;;;17.90;69.80;;;;;;5046913;28;20494;-77
2022/04/28 11:20:12;;;;;;;7.43;3.75;;;18.20;69.50;;;;;;5045137;28;20037;-78
2022/04/28 11:22:42;;;;;;;5.45;4.03;;;19.30;68.20;;;;;;5045846;28;20053;-77
2022/04/28 11:25:13;;;;;;;4.85;4.35;;;18.40;68.60;;;;;;5045385;28;20556;-76
2022/04/28 11:27:40;;;;;;;4.22;3.30;;;19.00;67.40;;;;;;5045500;28;20025;-77
2022/04/28 11:30:10;;;;;;;4.93;3.97;;;18.70;68.60;;;;;;5046160;28;20020;-77
2022/04/28 11:32:44;;;;;;;;;;;18.90;67.20;;;;;;5045243;28;20111;-77
2022/04/28 11:35:09;;;;;;;5.57;4.40;;;19.20;66.80;;;;;;5045494;28;20142;-77
2022/04/28 11:37:38;;;;;;;8.30;5.38;;;19.10;68.20;;;;;;5045789;28;20075;-77
2022/04/28 11:40:06;;;;;;;6.38;4.90;;;18.60;70.30;;;;;;5044511;28;20033;-77
2022/04/28 11:42:35;;;;;;;5.57;4.55;;;19.00;66.20;;;;;;5026155;28;20362;-77
2022/04/28 11:45:01;;;;;;;7.03;4.82;;;19.00;66.60;;;;;;5029241;28;20022;-77
2022/04/28 11:47:27;;;;;;;6.88;4.28;;;19.80;67.20;;;;;;5031263;28;20033;-78
2022/04/28 11:49:58;;;;;;;5.60;4.25;;;19.70;68.80;;;;;;5043563;28;20110;-79
2022/04/28 11:52:26;;;;;;;4.72;3.92;;;20.40;65.30;;;;;;5025445;28;20267;-78
2022/04/28 11:54:56;;;;;;;5.18;4.38;;;20.70;63.50;;;;;;5032628;28;20107;-78
2022/04/28 11:57:23;;;;;;;4.97;4.47;;;20.90;60.60;;;;;;5025889;28;20116;-77
2022/04/28 11:59:49;;;;;;;4.57;3.78;;;21.00;60.10;;;;;;5026600;28;20163;-78
2022/04/28 12:02:32;;;;;;;4.70;3.70;;;21.30;60.80;;;;;;5041511;28;20605;-78
2022/04/28 12:05:00;;;;;;;5.68;3.72;;;21.10;59.30;;;;;;5042042;28;20037;-79
2022/04/28 12:07:36;;;;;;;4.40;4.00;;;21.50;60.50;;;;;;5050037;28;20021;-79
2022/04/28 12:15:38;;;;;;;5.15;3.83;;;21.30;61.40;;;;;;5025808;28;20659;-77
2022/04/28 12:21:13;;;;;;;5.10;4.22;;;22.00;58.40;;;;;;5047563;28;20036;-78
2022/04/28 12:23:41;;;;;;;3.35;3.05;;;21.70;56.70;;;;;;5046189;28;20025;-78
2022/04/28 12:26:08;;;;;;;3.33;3.10;;;22.10;59.20;;;;;;5046219;28;20376;-80
2022/04/28 12:28:44;;;;;;;7.90;3.72;;;22.30;57.80;;;;;;5051890;28;20444;-78
2022/04/28 12:31:15;;;;;;;6.05;3.78;;;22.00;58.10;;;;;;5049336;28;20389;-80
2022/04/28 12:33:45;;;;;;;4.13;3.72;;;21.40;58.40;;;;;;5049597;28;20035;-79
2022/04/28 12:36:13;;;;;;;4.55;3.70;;;21.40;57.30;;;;;;5050078;28;20037;-79
2022/04/28 12:38:51;;;;;;;3.70;3.40;;;21.90;56.80;;;;;;5048388;28;20107;-79
2022/04/28 12:41:23;;;;;;;4.95;3.50;;;22.10;56.20;;;;;;5048184;28;20040;-79
2022/04/28 12:43:56;;;;;;;5.85;3.85;;;22.20;56.40;;;;;;5049914;28;20025;-80
2022/04/28 12:46:35;;;;;;;3.80;3.50;;;22.30;56.60;;;;;;5048516;28;20056;-78
2022/04/28 12:49:03;;;;;;;3.60;3.22;;;21.80;55.70;;;;;;5032243;28;20171;-79
2022/04/28 12:51:39;;;;;;;4.30;3.90;;;21.60;57.30;;;;;;5028900;28;20026;-79
2022/04/28 12:54:16;;;;;;;4.55;3.50;;;21.40;57.00;;;;;;5026942;28;20393;-78
2022/04/28 12:56:44;;;;;;;4.45;3.75;;;22.00;57.10;;;;;;5026767;28;20045;-78
2022/04/28 12:59:17;;;;;;;4.60;3.30;;;22.70;57.50;;;;;;5028095;28;20017;-77
2022/04/28 13:01:46;;;;;;;4.25;3.78;;;22.80;55.50;;;;;;5028359;28;20132;-77
2022/04/28 13:04:17;;;;;;;;;;;21.90;57.00;;;;;;5030534;28;20014;-77
2022/04/28 13:06:44;;;;;;;5.20;3.58;;;22.10;56.60;;;;;;5043930;28;19992;-78
2022/04/28 13:09:10;;;;;;;5.60;3.67;;;22.10;57.20;;;;;;5044128;28;20030;-78
2022/04/28 13:11:41;;;;;;;4.38;3.83;;;22.70;56.00;;;;;;5042804;28;20575;-78
2022/04/28 13:14:09;;;;;;;4.65;4.13;;;23.10;55.30;;;;;;5028330;28;20028;-79
2022/04/28 13:16:36;;;;;;;4.40;2.50;;;23.20;54.70;;;;;;5026458;28;20575;-79
2022/04/28 13:19:03;;;;;;;4.25;3.35;;;23.50;55.70;;;;;;5027735;28;20237;-79
2022/04/28 13:21:29;;;;;;;7.10;3.50;;;23.20;53.70;;;;;;5026682;28;20175;-79
2022/04/28 13:23:55;;;;;;;3.38;2.72;;;23.30;55.80;;;;;;5028051;28;20155;-79
2022/04/28 13:26:23;;;;;;;3.08;2.78;;;23.30;54.20;;;;;;5027853;28;20028;-79
2022/04/28 13:28:52;;;;;;;2.97;2.40;;;23.20;54.50;;;;;;5044956;28;20112;-80
2022/04/28 13:31:19;;;;;;;2.53;2.33;;;24.00;54.00;;;;;;5028773;28;20022;-79
2022/04/28 13:33:46;;;;;;;2.83;2.63;;;24.60;52.90;;;;;;5028194;28;20044;-80
2022/04/28 13:36:13;;;;;;;2.72;2.53;;;24.70;51.70;;;;;;5029372;28;20029;-78
2022/04/28 13:38:39;;;;;;;2.88;2.60;;;24.20;52.90;;;;;;4973775;23;20477;-77